sensor_id;sensor_type;location;lat;lon;timestamp;P1;durP1;ratioP1;P2;durP2;ratioP2
75787;SDS011;64406;50.024;14.492;2023-06-19T00:02:18;8.57;;;6.53;;
75787;SDS011;64406;50.024;14.492;2023-06-19T00:04:43;8.30;;;6.55;;
75787;SDS011;64406;50.024;14.492;2023-06-19T00:07:10;8.82;;;6.57;;
75787;SDS011;64406;50.024;14.492;2023-06-19T00:09:35;9.82;;;6.30;;
75787;SDS011;64406;50.024;14.492;2023-06-19T00:12:01;7.13;;;5.82;;
75787;SDS011;64406;50.024;14.492;2023-06-19T00:14:27;8.00;;;6.03;;
75787;SDS011;64406;50.024;14.492;2023-06-19T00:16:53;8.05;;;6.03;;
75787;SDS011;64406;50.024;14.492;2023-06-19T00:19:18;7.50;;;6.13;;
75787;SDS011;64406;50.024;14.492;2023-06-19T00:21:44;7.20;;;6.05;;
75787;SDS011;64406;50.024;14.492;2023-06-19T00:24:10;8.63;;;6.57;;
75787;SDS011;64406;50.024;14.492;2023-06-19T00:26:36;7.75;;;6.72;;
75787;SDS011;64406;50.024;14.492;2023-06-19T00:29:01;11.23;;;7.05;;
75787;SDS011;64406;50.024;14.492;2023-06-19T00:31:27;8.10;;;6.10;;
75787;SDS011;64406;50.024;14.492;2023-06-19T00:33:53;7.97;;;6.32;;
75787;SDS011;64406;50.024;14.492;2023-06-19T00:36:19;8.45;;;6.20;;
75787;SDS011;64406;50.024;14.492;2023-06-19T00:38:46;8.10;;;6.00;;
75787;SDS011;64406;50.024;14.492;2023-06-19T00:41:14;7.38;;;6.07;;
75787;SDS011;64406;50.024;14.492;2023-06-19T00:43:42;9.35;;;6.63;;
75787;SDS011;64406;50.024;14.492;2023-06-19T00:46:08;8.63;;;6.78;;
75787;SDS011;64406;50.024;14.492;2023-06-19T00:48:34;9.68;;;6.18;;
75787;SDS011;64406;50.024;14.492;2023-06-19T00:51:00;10.40;;;6.82;;
75787;SDS011;64406;50.024;14.492;2023-06-19T00:53:26;7.22;;;6.07;;
75787;SDS011;64406;50.024;14.492;2023-06-19T00:55:52;7.53;;;5.80;;
75787;SDS011;64406;50.024;14.492;2023-06-19T00:58:20;10.70;;;6.25;;
75787;SDS011;64406;50.024;14.492;2023-06-19T01:00:49;7.72;;;5.60;;
75787;SDS011;64406;50.024;14.492;2023-06-19T01:03:15;9.65;;;6.35;;
75787;SDS011;64406;50.024;14.492;2023-06-19T01:05:42;7.82;;;5.90;;
75787;SDS011;64406;50.024;14.492;2023-06-19T01:10:49;7.70;;;6.15;;
75787;SDS011;64406;50.024;14.492;2023-06-19T01:15:51;10.15;;;6.65;;
75787;SDS011;64406;50.024;14.492;2023-06-19T01:18:18;10.73;;;6.25;;
75787;SDS011;64406;50.024;14.492;2023-06-19T01:20:44;6.72;;;5.57;;
75787;SDS011;64406;50.024;14.492;2023-06-19T01:23:10;6.72;;;5.78;;
75787;SDS011;64406;50.024;14.492;2023-06-19T01:25:37;8.88;;;6.30;;
75787;SDS011;64406;50.024;14.492;2023-06-19T01:28:05;7.00;;;5.82;;
75787;SDS011;64406;50.024;14.492;2023-06-19T01:30:36;8.48;;;6.43;;
75787;SDS011;64406;50.024;14.492;2023-06-19T01:33:06;9.98;;;6.90;;
75787;SDS011;64406;50.024;14.492;2023-06-19T01:35:42;7.60;;;6.32;;
75787;SDS011;64406;50.024;14.492;2023-06-19T01:38:08;9.48;;;6.35;;
75787;SDS011;64406;50.024;14.492;2023-06-19T01:40:36;8.38;;;6.38;;
75787;SDS011;64406;50.024;14.492;2023-06-19T01:43:02;8.13;;;6.38;;
75787;SDS011;64406;50.024;14.492;2023-06-19T01:45:30;8.65;;;6.30;;
75787;SDS011;64406;50.024;14.492;2023-06-19T01:47:56;6.78;;;5.85;;
75787;SDS011;64406;50.024;14.492;2023-06-19T01:50:22;8.57;;;6.32;;
75787;SDS011;64406;50.024;14.492;2023-06-19T01:52:49;7.97;;;6.70;;
75787;SDS011;64406;50.024;14.492;2023-06-19T01:55:15;7.40;;;6.60;;
75787;SDS011;64406;50.024;14.492;2023-06-19T01:57:41;10.70;;;7.28;;
75787;SDS011;64406;50.024;14.492;2023-06-19T02:00:07;9.27;;;6.95;;
75787;SDS011;64406;50.024;14.492;2023-06-19T02:02:33;8.23;;;6.07;;
75787;SDS011;64406;50.024;14.492;2023-06-19T02:05:00;10.63;;;5.95;;
75787;SDS011;64406;50.024;14.492;2023-06-19T02:07:26;7.88;;;6.45;;
75787;SDS011;64406;50.024;14.492;2023-06-19T02:09:51;8.68;;;6.80;;
75787;SDS011;64406;50.024;14.492;2023-06-19T02:12:17;7.22;;;6.40;;
75787;SDS011;64406;50.024;14.492;2023-06-19T02:14:43;9.95;;;6.57;;
75787;SDS011;64406;50.024;14.492;2023-06-19T02:17:08;7.45;;;5.97;;
75787;SDS011;64406;50.024;14.492;2023-06-19T02:19:34;7.82;;;6.30;;
75787;SDS011;64406;50.024;14.492;2023-06-19T02:22:00;7.65;;;6.53;;
75787;SDS011;64406;50.024;14.492;2023-06-19T02:24:25;8.15;;;6.32;;
75787;SDS011;64406;50.024;14.492;2023-06-19T02:26:51;8.00;;;6.28;;
75787;SDS011;64406;50.024;14.492;2023-06-19T02:29:17;10.00;;;6.25;;
75787;SDS011;64406;50.024;14.492;2023-06-19T02:31:43;9.23;;;6.20;;
75787;SDS011;64406;50.024;14.492;2023-06-19T02:34:09;8.50;;;6.18;;
75787;SDS011;64406;50.024;14.492;2023-06-19T02:36:35;7.93;;;5.85;;
75787;SDS011;64406;50.024;14.492;2023-06-19T02:39:03;9.00;;;6.88;;
75787;SDS011;64406;50.024;14.492;2023-06-19T02:41:33;8.60;;;6.47;;
75787;SDS011;64406;50.024;14.492;2023-06-19T02:43:59;8.60;;;6.30;;
75787;SDS011;64406;50.024;14.492;2023-06-19T02:46:24;8.65;;;6.70;;
75787;SDS011;64406;50.024;14.492;2023-06-19T02:48:50;11.05;;;7.22;;
75787;SDS011;64406;50.024;14.492;2023-06-19T02:51:16;7.90;;;6.57;;
75787;SDS011;64406;50.024;14.492;2023-06-19T02:53:41;10.15;;;6.93;;
75787;SDS011;64406;50.024;14.492;2023-06-19T02:56:09;8.82;;;7.03;;
75787;SDS011;64406;50.024;14.492;2023-06-19T02:58:37;8.32;;;6.63;;
75787;SDS011;64406;50.024;14.492;2023-06-19T03:01:03;8.23;;;6.35;;
75787;SDS011;64406;50.024;14.492;2023-06-19T03:03:29;10.45;;;6.43;;
75787;SDS011;64406;50.024;14.492;2023-06-19T03:05:55;8.57;;;6.63;;
75787;SDS011;64406;50.024;14.492;2023-06-19T03:08:21;10.55;;;6.25;;
75787;SDS011;64406;50.024;14.492;2023-06-19T03:10:47;9.55;;;6.20;;
75787;SDS011;64406;50.024;14.492;2023-06-19T03:13:13;8.35;;;6.55;;
75787;SDS011;64406;50.024;14.492;2023-06-19T03:15:39;8.45;;;7.00;;
75787;SDS011;64406;50.024;14.492;2023-06-19T03:18:04;8.68;;;6.60;;
75787;SDS011;64406;50.024;14.492;2023-06-19T03:20:32;8.52;;;6.55;;
75787;SDS011;64406;50.024;14.492;2023-06-19T03:22:58;7.55;;;6.15;;
75787;SDS011;64406;50.024;14.492;2023-06-19T03:25:23;9.57;;;6.60;;
75787;SDS011;64406;50.024;14.492;2023-06-19T03:27:49;10.15;;;7.22;;
75787;SDS011;64406;50.024;14.492;2023-06-19T03:30:15;10.38;;;7.28;;
75787;SDS011;64406;50.024;14.492;2023-06-19T03:32:44;10.50;;;7.45;;
75787;SDS011;64406;50.024;14.492;2023-06-19T03:35:09;8.75;;;6.93;;
75787;SDS011;64406;50.024;14.492;2023-06-19T03:37:36;7.63;;;6.50;;
75787;SDS011;64406;50.024;14.492;2023-06-19T03:40:01;10.18;;;7.30;;
75787;SDS011;64406;50.024;14.492;2023-06-19T03:42:28;10.05;;;7.63;;
75787;SDS011;64406;50.024;14.492;2023-06-19T03:44:54;10.30;;;6.95;;
75787;SDS011;64406;50.024;14.492;2023-06-19T03:47:20;12.60;;;7.88;;
75787;SDS011;64406;50.024;14.492;2023-06-19T03:49:46;9.45;;;7.95;;
75787;SDS011;64406;50.024;14.492;2023-06-19T03:52:13;12.07;;;8.15;;
75787;SDS011;64406;50.024;14.492;2023-06-19T03:54:39;9.93;;;7.60;;
75787;SDS011;64406;50.024;14.492;2023-06-19T03:57:05;9.27;;;7.55;;
75787;SDS011;64406;50.024;14.492;2023-06-19T03:59:31;10.90;;;8.52;;
75787;SDS011;64406;50.024;14.492;2023-06-19T04:01:57;12.27;;;8.20;;
75787;SDS011;64406;50.024;14.492;2023-06-19T04:04:23;11.30;;;8.10;;
75787;SDS011;64406;50.024;14.492;2023-06-19T04:06:49;14.57;;;8.93;;
75787;SDS011;64406;50.024;14.492;2023-06-19T04:09:15;9.88;;;8.40;;
75787;SDS011;64406;50.024;14.492;2023-06-19T04:11:41;11.60;;;8.75;;
75787;SDS011;64406;50.024;14.492;2023-06-19T04:14:06;10.43;;;8.38;;
75787;SDS011;64406;50.024;14.492;2023-06-19T04:16:32;13.60;;;9.10;;
75787;SDS011;64406;50.024;14.492;2023-06-19T04:18:58;10.40;;;8.88;;
75787;SDS011;64406;50.024;14.492;2023-06-19T04:21:23;12.75;;;9.10;;
75787;SDS011;64406;50.024;14.492;2023-06-19T04:23:50;11.02;;;8.27;;
75787;SDS011;64406;50.024;14.492;2023-06-19T04:26:15;12.20;;;8.75;;
75787;SDS011;64406;50.024;14.492;2023-06-19T04:28:41;13.13;;;9.40;;
75787;SDS011;64406;50.024;14.492;2023-06-19T04:31:07;12.90;;;8.63;;
75787;SDS011;64406;50.024;14.492;2023-06-19T04:33:33;13.20;;;8.80;;
75787;SDS011;64406;50.024;14.492;2023-06-19T04:35:58;11.75;;;9.10;;
75787;SDS011;64406;50.024;14.492;2023-06-19T04:38:24;13.30;;;9.27;;
75787;SDS011;64406;50.024;14.492;2023-06-19T04:40:50;9.85;;;8.55;;
75787;SDS011;64406;50.024;14.492;2023-06-19T04:43:16;12.35;;;8.77;;
75787;SDS011;64406;50.024;14.492;2023-06-19T04:45:42;11.32;;;7.72;;
75787;SDS011;64406;50.024;14.492;2023-06-19T04:48:08;11.70;;;8.50;;
75787;SDS011;64406;50.024;14.492;2023-06-19T04:50:34;11.63;;;8.25;;
75787;SDS011;64406;50.024;14.492;2023-06-19T04:52:59;10.45;;;9.05;;
75787;SDS011;64406;50.024;14.492;2023-06-19T04:55:26;11.30;;;8.65;;
75787;SDS011;64406;50.024;14.492;2023-06-19T04:57:52;11.45;;;8.45;;
75787;SDS011;64406;50.024;14.492;2023-06-19T05:00:18;13.25;;;9.10;;
75787;SDS011;64406;50.024;14.492;2023-06-19T05:02:48;12.18;;;8.98;;
75787;SDS011;64406;50.024;14.492;2023-06-19T05:05:15;11.52;;;8.23;;
75787;SDS011;64406;50.024;14.492;2023-06-19T05:07:41;7.57;;;6.35;;
75787;SDS011;64406;50.024;14.492;2023-06-19T05:10:07;9.68;;;7.65;;
75787;SDS011;64406;50.024;14.492;2023-06-19T05:12:34;12.02;;;7.85;;
75787;SDS011;64406;50.024;14.492;2023-06-19T05:15:01;8.70;;;7.43;;
75787;SDS011;64406;50.024;14.492;2023-06-19T05:17:27;10.57;;;7.85;;
75787;SDS011;64406;50.024;14.492;2023-06-19T05:19:53;9.98;;;7.63;;
75787;SDS011;64406;50.024;14.492;2023-06-19T05:22:18;11.07;;;7.82;;
75787;SDS011;64406;50.024;14.492;2023-06-19T05:24:47;10.98;;;8.10;;
75787;SDS011;64406;50.024;14.492;2023-06-19T05:27:12;10.05;;;7.38;;
75787;SDS011;64406;50.024;14.492;2023-06-19T05:29:38;10.80;;;7.82;;
75787;SDS011;64406;50.024;14.492;2023-06-19T05:32:04;10.93;;;8.07;;
75787;SDS011;64406;50.024;14.492;2023-06-19T05:34:30;10.73;;;7.68;;
75787;SDS011;64406;50.024;14.492;2023-06-19T05:36:56;19.42;;;8.25;;
75787;SDS011;64406;50.024;14.492;2023-06-19T05:39:23;12.00;;;7.20;;
75787;SDS011;64406;50.024;14.492;2023-06-19T05:41:48;11.20;;;7.72;;
75787;SDS011;64406;50.024;14.492;2023-06-19T05:44:14;8.98;;;7.25;;
75787;SDS011;64406;50.024;14.492;2023-06-19T05:46:42;8.95;;;7.55;;
75787;SDS011;64406;50.024;14.492;2023-06-19T05:49:08;10.68;;;7.93;;
75787;SDS011;64406;50.024;14.492;2023-06-19T05:51:34;9.00;;;7.15;;
75787;SDS011;64406;50.024;14.492;2023-06-19T05:54:00;8.88;;;7.10;;
75787;SDS011;64406;50.024;14.492;2023-06-19T05:56:32;7.63;;;6.55;;
75787;SDS011;64406;50.024;14.492;2023-06-19T05:58:59;9.18;;;7.13;;
75787;SDS011;64406;50.024;14.492;2023-06-19T06:01:28;9.38;;;7.18;;
75787;SDS011;64406;50.024;14.492;2023-06-19T06:03:55;11.30;;;7.63;;
75787;SDS011;64406;50.024;14.492;2023-06-19T06:06:22;13.27;;;7.97;;
75787;SDS011;64406;50.024;14.492;2023-06-19T06:08:48;8.88;;;7.00;;
75787;SDS011;64406;50.024;14.492;2023-06-19T06:11:14;8.80;;;7.25;;
75787;SDS011;64406;50.024;14.492;2023-06-19T06:13:40;8.88;;;6.97;;
75787;SDS011;64406;50.024;14.492;2023-06-19T06:16:05;8.88;;;7.63;;
75787;SDS011;64406;50.024;14.492;2023-06-19T06:18:31;9.50;;;7.35;;
75787;SDS011;64406;50.024;14.492;2023-06-19T06:20:57;8.30;;;7.25;;
75787;SDS011;64406;50.024;14.492;2023-06-19T06:23:24;14.02;;;8.73;;
75787;SDS011;64406;50.024;14.492;2023-06-19T06:25:50;11.95;;;8.30;;
75787;SDS011;64406;50.024;14.492;2023-06-19T06:28:16;9.68;;;8.45;;
75787;SDS011;64406;50.024;14.492;2023-06-19T06:30:42;11.25;;;8.43;;
75787;SDS011;64406;50.024;14.492;2023-06-19T06:33:08;13.32;;;9.35;;
75787;SDS011;64406;50.024;14.492;2023-06-19T06:35:34;12.05;;;8.70;;
75787;SDS011;64406;50.024;14.492;2023-06-19T06:38:01;10.55;;;8.73;;
75787;SDS011;64406;50.024;14.492;2023-06-19T06:40:27;9.50;;;8.45;;
75787;SDS011;64406;50.024;14.492;2023-06-19T06:42:53;13.02;;;8.63;;
75787;SDS011;64406;50.024;14.492;2023-06-19T06:45:19;9.02;;;7.97;;
75787;SDS011;64406;50.024;14.492;2023-06-19T06:47:44;10.40;;;8.18;;
75787;SDS011;64406;50.024;14.492;2023-06-19T06:50:10;11.20;;;7.93;;
75787;SDS011;64406;50.024;14.492;2023-06-19T06:52:36;12.65;;;7.88;;
75787;SDS011;64406;50.024;14.492;2023-06-19T06:55:02;9.98;;;8.35;;
75787;SDS011;64406;50.024;14.492;2023-06-19T06:57:29;9.05;;;7.68;;
75787;SDS011;64406;50.024;14.492;2023-06-19T06:59:54;11.20;;;8.13;;
75787;SDS011;64406;50.024;14.492;2023-06-19T07:02:20;12.65;;;9.00;;
75787;SDS011;64406;50.024;14.492;2023-06-19T07:04:46;10.65;;;8.05;;
75787;SDS011;64406;50.024;14.492;2023-06-19T07:07:12;11.90;;;8.13;;
75787;SDS011;64406;50.024;14.492;2023-06-19T07:09:38;10.10;;;7.90;;
75787;SDS011;64406;50.024;14.492;2023-06-19T07:12:03;12.73;;;7.70;;
75787;SDS011;64406;50.024;14.492;2023-06-19T07:14:30;9.18;;;7.68;;
75787;SDS011;64406;50.024;14.492;2023-06-19T07:16:56;9.68;;;7.88;;
75787;SDS011;64406;50.024;14.492;2023-06-19T07:19:21;8.73;;;7.63;;
75787;SDS011;64406;50.024;14.492;2023-06-19T07:21:49;10.75;;;7.03;;
75787;SDS011;64406;50.024;14.492;2023-06-19T07:24:15;10.35;;;8.15;;
75787;SDS011;64406;50.024;14.492;2023-06-19T07:26:41;9.00;;;7.70;;
75787;SDS011;64406;50.024;14.492;2023-06-19T07:29:06;11.18;;;8.00;;
75787;SDS011;64406;50.024;14.492;2023-06-19T07:31:32;7.70;;;6.90;;
75787;SDS011;64406;50.024;14.492;2023-06-19T07:33:58;11.15;;;7.55;;
75787;SDS011;64406;50.024;14.492;2023-06-19T07:36:23;8.90;;;7.68;;
75787;SDS011;64406;50.024;14.492;2023-06-19T07:38:49;8.00;;;6.90;;
75787;SDS011;64406;50.024;14.492;2023-06-19T07:41:15;9.65;;;7.95;;
75787;SDS011;64406;50.024;14.492;2023-06-19T07:43:40;11.68;;;7.65;;
75787;SDS011;64406;50.024;14.492;2023-06-19T07:46:09;8.90;;;7.45;;
75787;SDS011;64406;50.024;14.492;2023-06-19T07:48:40;11.65;;;7.85;;
75787;SDS011;64406;50.024;14.492;2023-06-19T07:51:07;12.52;;;8.00;;
75787;SDS011;64406;50.024;14.492;2023-06-19T07:53:32;9.57;;;7.70;;
75787;SDS011;64406;50.024;14.492;2023-06-19T07:55:58;10.40;;;7.95;;
75787;SDS011;64406;50.024;14.492;2023-06-19T07:58:27;10.20;;;8.18;;
75787;SDS011;64406;50.024;14.492;2023-06-19T08:00:53;9.82;;;8.07;;
75787;SDS011;64406;50.024;14.492;2023-06-19T08:03:18;9.43;;;7.68;;
75787;SDS011;64406;50.024;14.492;2023-06-19T08:05:44;11.82;;;8.95;;
75787;SDS011;64406;50.024;14.492;2023-06-19T08:08:11;10.63;;;8.10;;
75787;SDS011;64406;50.024;14.492;2023-06-19T08:10:38;9.15;;;7.50;;
75787;SDS011;64406;50.024;14.492;2023-06-19T08:13:03;9.90;;;7.90;;
75787;SDS011;64406;50.024;14.492;2023-06-19T08:15:29;17.58;;;8.77;;
75787;SDS011;64406;50.024;14.492;2023-06-19T08:17:56;12.70;;;8.75;;
75787;SDS011;64406;50.024;14.492;2023-06-19T08:20:23;10.40;;;8.85;;
75787;SDS011;64406;50.024;14.492;2023-06-19T08:22:49;11.07;;;8.05;;
75787;SDS011;64406;50.024;14.492;2023-06-19T08:25:16;8.73;;;7.82;;
75787;SDS011;64406;50.024;14.492;2023-06-19T08:27:45;10.27;;;7.90;;
75787;SDS011;64406;50.024;14.492;2023-06-19T08:30:11;10.30;;;8.48;;
75787;SDS011;64406;50.024;14.492;2023-06-19T08:32:43;13.80;;;8.70;;
75787;SDS011;64406;50.024;14.492;2023-06-19T08:35:20;9.35;;;7.85;;
75787;SDS011;64406;50.024;14.492;2023-06-19T08:37:47;11.20;;;9.37;;
75787;SDS011;64406;50.024;14.492;2023-06-19T08:40:19;10.25;;;8.82;;
75787;SDS011;64406;50.024;14.492;2023-06-19T08:42:50;14.52;;;9.68;;
75787;SDS011;64406;50.024;14.492;2023-06-19T08:45:17;10.82;;;8.38;;
75787;SDS011;64406;50.024;14.492;2023-06-19T08:47:47;11.13;;;8.95;;
75787;SDS011;64406;50.024;14.492;2023-06-19T08:50:15;10.48;;;8.70;;
75787;SDS011;64406;50.024;14.492;2023-06-19T08:52:44;11.52;;;9.00;;
75787;SDS011;64406;50.024;14.492;2023-06-19T08:55:11;11.38;;;8.68;;
75787;SDS011;64406;50.024;14.492;2023-06-19T08:57:41;10.27;;;9.07;;
75787;SDS011;64406;50.024;14.492;2023-06-19T09:00:08;11.63;;;8.85;;
75787;SDS011;64406;50.024;14.492;2023-06-19T09:02:41;12.00;;;9.55;;
75787;SDS011;64406;50.024;14.492;2023-06-19T09:05:16;11.55;;;9.05;;
75787;SDS011;64406;50.024;14.492;2023-06-19T09:07:59;13.13;;;9.77;;
75787;SDS011;64406;50.024;14.492;2023-06-19T09:10:27;13.60;;;9.18;;
75787;SDS011;64406;50.024;14.492;2023-06-19T09:12:59;13.25;;;10.35;;
75787;SDS011;64406;50.024;14.492;2023-06-19T09:15:28;10.13;;;8.77;;
75787;SDS011;64406;50.024;14.492;2023-06-19T09:18:04;13.82;;;9.40;;
75787;SDS011;64406;50.024;14.492;2023-06-19T09:20:38;10.75;;;9.00;;
75787;SDS011;64406;50.024;14.492;2023-06-19T09:23:14;10.75;;;9.35;;
75787;SDS011;64406;50.024;14.492;2023-06-19T09:25:53;10.75;;;9.63;;
75787;SDS011;64406;50.024;14.492;2023-06-19T09:28:25;11.73;;;9.43;;
75787;SDS011;64406;50.024;14.492;2023-06-19T09:31:02;10.52;;;8.15;;
75787;SDS011;64406;50.024;14.492;2023-06-19T09:33:31;8.75;;;7.78;;
75787;SDS011;64406;50.024;14.492;2023-06-19T09:36:03;8.90;;;7.75;;
75787;SDS011;64406;50.024;14.492;2023-06-19T09:38:36;9.63;;;8.30;;
75787;SDS011;64406;50.024;14.492;2023-06-19T09:41:04;8.77;;;7.35;;
75787;SDS011;64406;50.024;14.492;2023-06-19T09:43:42;11.27;;;7.25;;
75787;SDS011;64406;50.024;14.492;2023-06-19T09:46:15;10.55;;;7.53;;
75787;SDS011;64406;50.024;14.492;2023-06-19T09:48:49;10.27;;;8.60;;
75787;SDS011;64406;50.024;14.492;2023-06-19T09:51:37;9.45;;;7.75;;
75787;SDS011;64406;50.024;14.492;2023-06-19T09:54:06;9.97;;;8.40;;
75787;SDS011;64406;50.024;14.492;2023-06-19T09:56:42;10.82;;;8.00;;
75787;SDS011;64406;50.024;14.492;2023-06-19T09:59:08;10.40;;;8.40;;
75787;SDS011;64406;50.024;14.492;2023-06-19T10:01:35;10.98;;;8.55;;
75787;SDS011;64406;50.024;14.492;2023-06-19T10:04:03;11.77;;;8.85;;
75787;SDS011;64406;50.024;14.492;2023-06-19T10:06:42;9.82;;;8.23;;
75787;SDS011;64406;50.024;14.492;2023-06-19T10:09:14;9.13;;;8.23;;
75787;SDS011;64406;50.024;14.492;2023-06-19T10:11:48;9.13;;;8.10;;
75787;SDS011;64406;50.024;14.492;2023-06-19T10:14:21;9.48;;;8.48;;
75787;SDS011;64406;50.024;14.492;2023-06-19T10:16:49;8.93;;;7.82;;
75787;SDS011;64406;50.024;14.492;2023-06-19T10:19:15;10.68;;;8.45;;
75787;SDS011;64406;50.024;14.492;2023-06-19T10:21:46;10.15;;;8.10;;
75787;SDS011;64406;50.024;14.492;2023-06-19T10:24:16;11.52;;;8.73;;
75787;SDS011;64406;50.024;14.492;2023-06-19T10:26:58;11.48;;;9.57;;
75787;SDS011;64406;50.024;14.492;2023-06-19T10:29:25;9.27;;;8.38;;
75787;SDS011;64406;50.024;14.492;2023-06-19T10:31:52;8.23;;;7.38;;
75787;SDS011;64406;50.024;14.492;2023-06-19T10:34:18;10.02;;;8.38;;
75787;SDS011;64406;50.024;14.492;2023-06-19T10:36:44;8.93;;;8.02;;
75787;SDS011;64406;50.024;14.492;2023-06-19T10:39:10;15.52;;;8.77;;
75787;SDS011;64406;50.024;14.492;2023-06-19T10:41:35;10.30;;;8.15;;
75787;SDS011;64406;50.024;14.492;2023-06-19T10:44:05;8.70;;;7.63;;
75787;SDS011;64406;50.024;14.492;2023-06-19T10:46:39;8.93;;;7.80;;
75787;SDS011;64406;50.024;14.492;2023-06-19T10:49:06;10.95;;;8.13;;
75787;SDS011;64406;50.024;14.492;2023-06-19T10:51:40;8.43;;;7.63;;
75787;SDS011;64406;50.024;14.492;2023-06-19T10:54:08;10.32;;;8.82;;
75787;SDS011;64406;50.024;14.492;2023-06-19T10:56:35;8.85;;;7.95;;
75787;SDS011;64406;50.024;14.492;2023-06-19T10:59:03;10.80;;;7.68;;
75787;SDS011;64406;50.024;14.492;2023-06-19T11:01:35;8.80;;;7.72;;
75787;SDS011;64406;50.024;14.492;2023-06-19T11:04:03;7.75;;;6.95;;
75787;SDS011;64406;50.024;14.492;2023-06-19T11:06:33;8.70;;;7.50;;
75787;SDS011;64406;50.024;14.492;2023-06-19T11:08:59;8.73;;;7.60;;
75787;SDS011;64406;50.024;14.492;2023-06-19T11:11:46;8.10;;;7.30;;
75787;SDS011;64406;50.024;14.492;2023-06-19T11:14:14;7.82;;;7.13;;
75787;SDS011;64406;50.024;14.492;2023-06-19T11:16:49;9.30;;;6.65;;
75787;SDS011;64406;50.024;14.492;2023-06-19T11:19:20;6.35;;;5.75;;
75787;SDS011;64406;50.024;14.492;2023-06-19T11:21:52;7.07;;;6.38;;
75787;SDS011;64406;50.024;14.492;2023-06-19T11:24:18;7.55;;;5.78;;
75787;SDS011;64406;50.024;14.492;2023-06-19T11:26:46;7.53;;;5.70;;
75787;SDS011;64406;50.024;14.492;2023-06-19T11:29:20;6.05;;;5.47;;
75787;SDS011;64406;50.024;14.492;2023-06-19T11:31:48;6.57;;;5.97;;
75787;SDS011;64406;50.024;14.492;2023-06-19T11:34:15;7.13;;;5.40;;
75787;SDS011;64406;50.024;14.492;2023-06-19T11:36:42;6.28;;;5.68;;
75787;SDS011;64406;50.024;14.492;2023-06-19T11:39:12;7.40;;;6.38;;
75787;SDS011;64406;50.024;14.492;2023-06-19T11:41:45;6.95;;;5.93;;
75787;SDS011;64406;50.024;14.492;2023-06-19T11:44:11;6.13;;;5.28;;
75787;SDS011;64406;50.024;14.492;2023-06-19T11:46:37;6.53;;;5.80;;
75787;SDS011;64406;50.024;14.492;2023-06-19T11:49:10;6.22;;;5.57;;
75787;SDS011;64406;50.024;14.492;2023-06-19T11:51:37;6.57;;;5.90;;
75787;SDS011;64406;50.024;14.492;2023-06-19T11:54:05;7.07;;;6.03;;
75787;SDS011;64406;50.024;14.492;2023-06-19T11:56:37;7.05;;;6.35;;
75787;SDS011;64406;50.024;14.492;2023-06-19T11:59:05;7.00;;;6.30;;
75787;SDS011;64406;50.024;14.492;2023-06-19T12:01:32;6.13;;;5.53;;
75787;SDS011;64406;50.024;14.492;2023-06-19T12:03:59;5.15;;;4.72;;
75787;SDS011;64406;50.024;14.492;2023-06-19T12:06:26;6.90;;;5.07;;
75787;SDS011;64406;50.024;14.492;2023-06-19T12:08:52;8.30;;;5.45;;
75787;SDS011;64406;50.024;14.492;2023-06-19T12:11:18;5.95;;;5.35;;
75787;SDS011;64406;50.024;14.492;2023-06-19T12:13:44;6.50;;;5.90;;
75787;SDS011;64406;50.024;14.492;2023-06-19T12:16:10;7.07;;;6.32;;
75787;SDS011;64406;50.024;14.492;2023-06-19T12:18:37;8.10;;;5.80;;
75787;SDS011;64406;50.024;14.492;2023-06-19T12:21:03;8.02;;;5.90;;
75787;SDS011;64406;50.024;14.492;2023-06-19T12:23:29;7.70;;;6.90;;
75787;SDS011;64406;50.024;14.492;2023-06-19T12:26:01;7.20;;;6.50;;
75787;SDS011;64406;50.024;14.492;2023-06-19T12:28:26;9.70;;;6.22;;
75787;SDS011;64406;50.024;14.492;2023-06-19T12:30:54;6.03;;;5.47;;
75787;SDS011;64406;50.024;14.492;2023-06-19T12:33:24;7.50;;;6.38;;
75787;SDS011;64406;50.024;14.492;2023-06-19T12:35:59;6.55;;;5.72;;
75787;SDS011;64406;50.024;14.492;2023-06-19T12:38:26;6.20;;;5.60;;
75787;SDS011;64406;50.024;14.492;2023-06-19T12:40:52;7.28;;;5.80;;
75787;SDS011;64406;50.024;14.492;2023-06-19T12:43:17;6.53;;;5.93;;
75787;SDS011;64406;50.024;14.492;2023-06-19T12:45:43;6.50;;;5.75;;
75787;SDS011;64406;50.024;14.492;2023-06-19T12:48:10;7.10;;;5.65;;
75787;SDS011;64406;50.024;14.492;2023-06-19T12:50:38;8.27;;;5.75;;
75787;SDS011;64406;50.024;14.492;2023-06-19T12:53:04;6.72;;;5.80;;
75787;SDS011;64406;50.024;14.492;2023-06-19T12:55:33;6.13;;;5.55;;
75787;SDS011;64406;50.024;14.492;2023-06-19T12:57:59;6.63;;;5.45;;
75787;SDS011;64406;50.024;14.492;2023-06-19T13:00:30;6.18;;;5.57;;
75787;SDS011;64406;50.024;14.492;2023-06-19T13:02:55;6.43;;;5.82;;
75787;SDS011;64406;50.024;14.492;2023-06-19T13:05:21;7.53;;;5.70;;
75787;SDS011;64406;50.024;14.492;2023-06-19T13:07:47;6.90;;;6.18;;
75787;SDS011;64406;50.024;14.492;2023-06-19T13:10:13;6.88;;;6.28;;
75787;SDS011;64406;50.024;14.492;2023-06-19T13:12:39;6.97;;;6.28;;
75787;SDS011;64406;50.024;14.492;2023-06-19T13:15:05;6.53;;;5.88;;
75787;SDS011;64406;50.024;14.492;2023-06-19T13:17:31;6.57;;;5.82;;
75787;SDS011;64406;50.024;14.492;2023-06-19T13:19:57;7.30;;;6.22;;
75787;SDS011;64406;50.024;14.492;2023-06-19T13:22:23;6.90;;;6.25;;
75787;SDS011;64406;50.024;14.492;2023-06-19T13:24:49;9.38;;;6.75;;
75787;SDS011;64406;50.024;14.492;2023-06-19T13:27:15;8.40;;;6.40;;
75787;SDS011;64406;50.024;14.492;2023-06-19T13:29:40;7.55;;;6.80;;
75787;SDS011;64406;50.024;14.492;2023-06-19T13:32:06;9.68;;;6.82;;
75787;SDS011;64406;50.024;14.492;2023-06-19T13:34:32;7.82;;;6.53;;
75787;SDS011;64406;50.024;14.492;2023-06-19T13:36:58;7.85;;;6.50;;
75787;SDS011;64406;50.024;14.492;2023-06-19T13:39:24;10.13;;;6.47;;
75787;SDS011;64406;50.024;14.492;2023-06-19T13:41:50;7.70;;;6.82;;
75787;SDS011;64406;50.024;14.492;2023-06-19T13:44:16;8.57;;;6.95;;
75787;SDS011;64406;50.024;14.492;2023-06-19T13:46:41;7.88;;;7.13;;
75787;SDS011;64406;50.024;14.492;2023-06-19T13:49:07;7.18;;;6.47;;
75787;SDS011;64406;50.024;14.492;2023-06-19T13:51:33;7.80;;;6.80;;
75787;SDS011;64406;50.024;14.492;2023-06-19T13:53:59;7.65;;;6.85;;
75787;SDS011;64406;50.024;14.492;2023-06-19T13:56:24;7.85;;;7.15;;
75787;SDS011;64406;50.024;14.492;2023-06-19T13:58:50;8.38;;;6.70;;
75787;SDS011;64406;50.024;14.492;2023-06-19T14:01:16;8.13;;;7.30;;
75787;SDS011;64406;50.024;14.492;2023-06-19T14:03:42;7.70;;;7.00;;
75787;SDS011;64406;50.024;14.492;2023-06-19T14:06:08;7.45;;;6.75;;
75787;SDS011;64406;50.024;14.492;2023-06-19T14:08:35;7.57;;;6.75;;
75787;SDS011;64406;50.024;14.492;2023-06-19T14:11:00;8.07;;;7.38;;
75787;SDS011;64406;50.024;14.492;2023-06-19T14:13:27;7.53;;;6.80;;
75787;SDS011;64406;50.024;14.492;2023-06-19T14:15:53;8.60;;;7.70;;
75787;SDS011;64406;50.024;14.492;2023-06-19T14:18:19;7.95;;;7.15;;
75787;SDS011;64406;50.024;14.492;2023-06-19T14:20:44;7.72;;;7.03;;
75787;SDS011;64406;50.024;14.492;2023-06-19T14:23:10;11.15;;;7.63;;
75787;SDS011;64406;50.024;14.492;2023-06-19T14:25:37;7.38;;;6.78;;
75787;SDS011;64406;50.024;14.492;2023-06-19T14:28:03;7.40;;;6.70;;
75787;SDS011;64406;50.024;14.492;2023-06-19T14:30:30;8.40;;;7.40;;
75787;SDS011;64406;50.024;14.492;2023-06-19T14:32:56;7.50;;;6.78;;
75787;SDS011;64406;50.024;14.492;2023-06-19T14:35:21;7.90;;;6.75;;